Time;durP1;ratioP1;P1;durP2;ratioP2;P2;SDS_P1;SDS_P2;PMS_P1;PMS_P2;Temp;Humidity;BMP_temperature;BMP_pressure;BME280_temperature;BME280_humidity;BME280_pressure;Samples;Min_cycle;Max_cycle;Signal;HPM_P1;HPM_P2
2022/03/13 00:00:36;;;;;;;50.40;23.02;;;;;;;-0.47;44.36;101285.13;5030759;28;20018;-71
2022/03/13 00:03:11;;;;;;;62.53;25.35;;;;;;;-0.53;44.43;101283.84;4986979;28;20042;-71
2022/03/13 00:05:40;;;;;;;48.13;22.92;;;;;;;-0.54;44.52;101276.63;5015177;28;20532;-72
2022/03/13 00:08:27;;;;;;;50.15;22.20;;;;;;;-0.64;45.06;101266.09;4998151;28;20034;-70
2022/03/13 00:11:01;;;;;;;58.95;23.63;;;;;;;-0.57;44.88;101276.59;4997804;28;20112;-72
2022/03/13 00:13:32;;;;;;;56.13;22.95;;;;;;;-0.61;44.91;101284.13;4981669;28;20033;-71
2022/03/13 00:16:08;;;;;;;58.35;23.42;;;;;;;-0.58;45.10;101291.75;4981182;28;20040;-71
2022/03/13 00:18:36;;;;;;;53.55;22.13;;;;;;;-0.58;45.00;101291.75;4999094;28;20526;-72
2022/03/13 00:21:19;;;;;;;53.47;20.42;;;;;;;-0.59;45.30;101285.34;5013808;28;20033;-72
2022/03/13 00:23:46;;;;;;;;;;;;;;;-0.62;45.02;101286.09;5015323;28;20061;-73
2022/03/13 00:26:15;;;;;;;58.30;23.70;;;;;;;-0.59;44.71;101285.34;5013575;28;19913;-72
2022/03/13 00:28:40;;;;;;;54.42;24.75;;;;;;;-0.60;44.93;101280.16;4997332;28;20026;-72
2022/03/13 00:31:06;;;;;;;52.90;23.35;;;;;;;-0.61;44.72;101282.13;5013654;28;20032;-71
2022/03/13 00:33:46;;;;;;;54.35;24.45;;;;;;;-0.61;44.87;101276.53;5014701;28;20466;-72
2022/03/13 00:36:13;;;;;;;53.25;23.48;;;;;;;-0.70;44.67;101273.22;5014768;28;20021;-73
2022/03/13 00:38:38;;;;;;;60.35;25.92;;;;;;;-0.69;45.15;101277.59;5014345;28;20117;-71
2022/03/13 00:41:04;;;;;;;59.83;25.85;;;;;;;-0.72;44.83;101269.19;4988971;28;20129;-74
2022/03/13 00:43:31;;;;;;;60.38;26.60;;;;;;;-0.71;44.88;101262.41;5013270;28;20021;-71
2022/03/13 00:45:57;;;;;;;61.42;26.23;;;;;;;-0.70;45.18;101278.00;5014746;28;20029;-73
2022/03/13 00:48:38;;;;;;;61.38;25.30;;;;;;;-0.72;45.11;101271.97;5013304;28;20014;-73
2022/03/13 00:51:03;;;;;;;58.05;26.63;;;;;;;-0.75;45.13;101270.75;5014391;28;20493;-73
2022/03/13 00:53:30;;;;;;;55.25;24.70;;;;;;;-0.75;45.10;101269.94;5030302;28;20053;-73
2022/03/13 00:56:10;;;;;;;65.50;27.63;;;;;;;-0.74;45.07;101272.34;5016687;28;20027;-73
2022/03/13 00:58:40;;;;;;;60.47;24.48;;;;;;;-0.73;44.87;101278.75;5002975;28;20584;-73
2022/03/13 01:01:08;;;;;;;57.00;26.15;;;;;;;-0.69;45.29;101268.44;5020810;28;20025;-72
2022/03/13 01:03:37;;;;;;;58.35;26.50;;;;;;;-0.73;44.90;101271.16;5033032;28;20036;-72
2022/03/13 01:06:08;;;;;;;68.70;26.58;;;;;;;-0.76;44.86;101271.94;5053777;28;20031;-73
2022/03/13 01:08:35;;;;;;;51.67;24.27;;;;;;;-0.90;45.14;101254.97;5018930;28;20025;-71
2022/03/13 01:11:10;;;;;;;61.28;25.25;;;;;;;-0.81;45.59;101266.66;5035586;28;20033;-71
2022/03/13 01:13:39;;;;;;;64.55;26.23;;;;;;;-0.90;45.43;101254.97;5019275;28;20025;-73
2022/03/13 01:16:30;;;;;;;63.35;25.23;;;;;;;-0.89;45.59;101259.38;5036624;28;20029;-72
2022/03/13 01:18:58;;;;;;;53.38;24.25;;;;;;;-0.90;45.09;101254.97;5019247;28;20389;-72
2022/03/13 01:21:26;;;;;;;54.83;24.02;;;;;;;-0.89;45.39;101260.16;5053498;28;20021;-73
2022/03/13 01:24:09;;;;;;;56.92;25.92;;;;;;;-0.92;45.33;101258.13;5035943;28;20025;-72
2022/03/13 01:26:37;;;;;;;59.50;25.40;;;;;;;-0.96;45.68;101248.88;5053377;28;20054;-73
2022/03/13 01:29:14;;;;;;;54.70;23.88;;;;;;;-0.99;45.78;101246.81;5035665;28;20029;-72
2022/03/13 01:31:45;;;;;;;57.55;24.90;;;;;;;-0.94;45.43;101245.72;5018960;28;20048;-72
2022/03/13 01:34:31;;;;;;;54.03;24.02;;;;;;;-0.98;45.78;101253.22;5035533;28;20017;-72
2022/03/13 01:36:57;;;;;;;59.83;23.75;;;;;;;-0.99;45.67;101249.63;5053139;28;20032;-72
2022/03/13 01:39:22;;;;;;;54.42;22.33;;;;;;;-0.99;46.01;101246.81;5053354;28;20095;-73
2022/03/13 01:41:49;;;;;;;52.00;24.05;;;;;;;-1.01;46.00;101251.19;5053336;28;20025;-73
2022/03/13 01:44:31;;;;;;;47.55;22.00;;;;;;;-1.06;45.86;101252.34;5019322;28;20132;-72
2022/03/13 01:46:57;;;;;;;50.47;24.05;;;;;;;-1.21;46.05;101222.56;5035366;28;20028;-73
2022/03/13 01:49:23;;;;;;;58.85;22.63;;;;;;;-1.07;45.96;101242.31;5035684;28;20025;-72
2022/03/13 01:51:50;;;;;;;59.60;21.90;;;;;;;-1.11;45.79;101249.84;5035718;28;20048;-72
2022/03/13 01:54:17;;;;;;;53.28;21.60;;;;;;;-1.09;46.02;101246.69;5015249;28;20088;-72
2022/03/13 01:56:43;;;;;;;55.70;23.63;;;;;;;-1.10;46.09;101231.09;5032132;28;20045;-72
2022/03/13 01:59:11;;;;;;;54.72;22.02;;;;;;;-1.10;46.14;101245.09;5033298;28;20032;-72
2022/03/13 02:01:37;;;;;;;48.22;21.25;;;;;;;-1.17;46.09;101231.00;5031950;28;20446;-71
2022/03/13 02:04:02;;;;;;;56.35;23.63;;;;;;;-1.26;46.13;101227.66;5031809;28;20497;-74
2022/03/13 02:06:28;;;;;;;57.88;23.15;;;;;;;-1.20;46.35;101234.53;5031707;28;20117;-73
2022/03/13 02:09:09;;;;;;;45.53;22.02;;;;;;;-1.25;46.47;101234.88;5031750;28;20470;-72
2022/03/13 02:11:40;;;;;;;56.95;23.15;;;;;;;-1.22;46.45;101229.31;5031665;28;20033;-72
2022/03/13 02:14:08;;;;;;;60.33;23.20;;;;;;;-1.25;46.67;101229.28;5031854;28;20056;-72
2022/03/13 02:16:35;;;;;;;56.53;23.45;;;;;;;-1.25;46.88;101235.69;5015270;28;20025;-72
2022/03/13 02:19:01;;;;;;;50.28;22.05;;;;;;;-1.26;46.62;101236.84;5015580;28;20033;-72
2022/03/13 02:21:39;;;;;;;51.33;23.17;;;;;;;-1.24;46.54;101236.50;5002993;28;20036;-72
2022/03/13 02:24:12;;;;;;;51.83;22.48;;;;;;;-1.25;46.47;101226.47;5037025;28;20529;-71
2022/03/13 02:26:42;;;;;;;51.00;21.75;;;;;;;-1.22;46.17;101234.09;5036885;28;20073;-71
2022/03/13 02:29:11;;;;;;;49.83;22.88;;;;;;;-1.26;46.59;101225.69;5035934;28;20030;-71
2022/03/13 02:31:39;;;;;;;54.28;23.98;;;;;;;-1.32;46.47;101225.19;5018634;28;20124;-72
2022/03/13 02:34:09;;;;;;;54.80;24.58;;;;;;;-1.38;46.72;101217.50;5035457;28;20029;-73
2022/03/13 02:36:41;;;;;;;59.67;24.15;;;;;;;-1.37;46.66;101221.91;5035629;28;20021;-73
2022/03/13 02:39:08;;;;;;;54.20;23.77;;;;;;;-1.41;46.46;101230.25;5035330;28;20060;-71
2022/03/13 02:41:53;;;;;;;53.58;25.33;;;;;;;-1.43;47.02;101223.44;5002022;28;20114;-72
2022/03/13 02:44:18;;;;;;;50.80;21.77;;;;;;;-1.57;46.84;101223.97;5035545;28;20026;-72
2022/03/13 02:46:53;;;;;;;50.22;21.48;;;;;;;-1.56;46.64;101233.97;5033996;28;20168;-72
2022/03/13 02:49:20;;;;;;;49.95;21.55;;;;;;;-1.61;47.04;101225.09;5034007;28;20025;-74
2022/03/13 02:51:54;;;;;;;51.28;21.00;;;;;;;-1.58;46.87;101221.59;5034963;28;20176;-73
2022/03/13 02:54:28;;;;;;;43.92;20.10;;;;;;;-1.66;46.42;101214.25;5017012;28;20045;-72
2022/03/13 02:56:55;;;;;;;53.85;20.17;;;;;;;-1.63;46.99;101227.47;5035770;28;20148;-72
2022/03/13 02:59:21;;;;;;;53.40;21.00;;;;;;;-1.62;46.60;101215.13;5035810;28;20108;-73
2022/03/13 03:01:48;;;;;;;44.60;19.55;;;;;;;-1.65;46.66;101216.69;5035112;28;20025;-73
2022/03/13 03:04:22;;;;;;;42.85;17.63;;;;;;;-1.66;46.54;101223.44;5018375;28;20112;-73
2022/03/13 03:07:07;;;;;;;51.28;19.15;;;;;;;-1.67;46.64;101221.81;5036047;28;20029;-72
2022/03/13 03:09:33;;;;;;;37.30;17.88;;;;;;;-1.65;46.44;101221.44;5036646;28;20032;-70
2022/03/13 03:12:01;;;;;;;39.10;17.80;;;;;;;-1.60;46.53;101223.94;5036454;28;20100;-72
2022/03/13 03:14:30;;;;;;;36.38;16.45;;;;;;;-1.64;46.35;101217.50;5035959;28;20022;-71
2022/03/13 03:16:56;;;;;;;41.67;17.67;;;;;;;-1.65;46.52;101210.28;5018366;28;20056;-72
2022/03/13 03:19:30;;;;;;;39.50;17.85;;;;;;;-1.63;46.51;101225.50;5034532;28;20525;-72
2022/03/13 03:21:56;;;;;;;43.00;18.75;;;;;;;-1.66;46.77;101220.66;5018102;28;20025;-71
2022/03/13 03:24:25;;;;;;;46.92;17.83;;;;;;;-1.64;46.89;101215.50;5034608;28;20025;-72
2022/03/13 03:26:53;;;;;;;44.42;18.92;;;;;;;-1.65;46.97;101213.88;5035938;28;20049;-72
2022/03/13 03:29:20;;;;;;;42.47;16.67;;;;;;;-1.62;47.22;101217.91;5002024;28;20037;-71
2022/03/13 03:31:47;;;;;;;44.78;19.08;;;;;;;-1.63;47.11;101219.09;5017666;28;20120;-71
2022/03/13 03:34:16;;;;;;;40.67;17.83;;;;;;;-1.60;46.92;101221.13;5001696;28;20029;-72
2022/03/13 03:36:51;;;;;;;45.50;18.50;;;;;;;-1.62;46.77;101220.69;5035753;28;20033;-72
2022/03/13 03:39:19;;;;;;;49.22;19.05;;;;;;;-1.63;47.01;101222.72;5018931;28;20029;-72
2022/03/13 03:41:46;;;;;;;46.42;20.05;;;;;;;-1.66;46.95;101214.25;5036117;28;20021;-73
2022/03/13 03:44:14;;;;;;;38.05;19.00;;;;;;;-1.63;46.89;101224.69;5034634;28;20017;-73
2022/03/13 03:46:41;;;;;;;45.00;18.60;;;;;;;-1.65;46.93;101219.47;5001796;28;20075;-72
2022/03/13 03:49:08;;;;;;;48.00;20.13;;;;;;;-1.66;47.00;101219.84;5018081;28;20029;-73
2022/03/13 03:51:33;;;;;;;39.38;19.10;;;;;;;-1.71;46.84;101215.38;5033634;28;20025;-73
2022/03/13 03:54:02;;;;;;;44.28;17.23;;;;;;;-1.68;46.90;101213.84;5047939;28;20106;-72
2022/03/13 03:56:28;;;;;;;44.63;17.45;;;;;;;-1.72;46.98;101219.34;5004460;28;20394;-71
2022/03/13 03:58:55;;;;;;;40.83;17.65;;;;;;;-1.73;47.13;101214.97;5055266;28;20111;-72
2022/03/13 04:01:20;;;;;;;48.38;18.88;;;;;;;-1.70;47.33;101216.19;5055294;28;20414;-73
2022/03/13 04:03:46;;;;;;;45.72;18.67;;;;;;;-1.77;46.59;101212.09;5055535;28;20519;-73
2022/03/13 04:06:12;;;;;;;44.53;19.17;;;;;;;-1.74;47.22;101216.13;5020704;28;20024;-71
2022/03/13 04:08:39;;;;;;;44.05;18.88;;;;;;;-1.76;46.96;101215.69;5020717;28;20032;-72
2022/03/13 04:11:08;;;;;;;39.70;18.45;;;;;;;-1.78;47.22;101216.06;5054904;28;20021;-73
2022/03/13 04:13:39;;;;;;;41.55;17.23;;;;;;;-1.77;47.49;101211.28;5054979;28;20029;-73
2022/03/13 04:16:09;;;;;;;41.97;17.15;;;;;;;-1.77;47.40;101225.22;5037597;28;20035;-71
2022/03/13 04:18:35;;;;;;;40.33;17.70;;;;;;;-1.81;47.43;101216.00;5020211;28;20060;-71
2022/03/13 04:21:03;;;;;;;39.45;17.35;;;;;;;-1.81;47.78;101216.81;5054348;28;20025;-72
2022/03/13 04:23:30;;;;;;;48.42;18.48;;;;;;;-1.79;47.82;101228.41;5020521;28;20094;-72
2022/03/13 04:25:56;;;;;;;36.13;17.30;;;;;;;-1.77;48.12;101216.84;5020355;28;20466;-73
2022/03/13 04:28:23;;;;;;;42.75;19.00;;;;;;;-1.81;47.92;101230.75;5037133;28;20031;-72
2022/03/13 04:30:59;;;;;;;45.15;18.85;;;;;;;-1.83;47.64;101227.56;5054757;28;20021;-71
2022/03/13 04:33:27;;;;;;;42.25;18.33;;;;;;;-1.89;47.83;101228.22;5054793;28;20024;-71
2022/03/13 04:35:56;;;;;;;40.42;18.88;;;;;;;-1.92;48.18;101224.19;5036663;28;20032;-72
2022/03/13 04:38:24;;;;;;;40.55;18.08;;;;;;;-1.96;48.27;101217.72;5020514;28;20438;-73
2022/03/13 04:40:53;;;;;;;39.95;20.02;;;;;;;-2.03;48.28;101214.03;5036694;28;20134;-71
2022/03/13 04:43:20;;;;;;;38.13;18.25;;;;;;;-2.03;48.23;101219.59;5035868;28;20028;-73
2022/03/13 04:45:45;;;;;;;36.65;17.20;;;;;;;-2.07;48.51;101215.94;5019903;28;20028;-72
2022/03/13 04:48:13;;;;;;;41.63;19.45;;;;;;;-2.03;48.23;101222.41;5019968;28;20104;-73
2022/03/13 04:50:39;;;;;;;44.25;16.92;;;;;;;-2.10;48.35;101217.47;5036238;28;20041;-72
2022/03/13 04:53:06;;;;;;;36.40;16.92;;;;;;;-2.09;48.39;101216.31;5053507;28;20077;-72
2022/03/13 04:55:33;;;;;;;44.55;19.08;;;;;;;-2.13;48.64;101218.22;5054225;28;20025;-73
2022/03/13 04:57:59;;;;;;;36.95;17.27;;;;;;;-2.15;48.57;101217.78;5036061;28;20033;-72
2022/03/13 05:00:26;;;;;;;35.05;16.38;;;;;;;-2.17;48.62;101223.72;5050833;28;20493;-71
2022/03/13 05:02:54;;;;;;;43.40;16.98;;;;;;;-2.15;48.66;101223.38;5036313;28;20381;-73
2022/03/13 05:05:28;;;;;;;34.45;15.45;;;;;;;-2.13;48.90;101223.81;5019885;28;20090;-72
2022/03/13 05:07:54;;;;;;;37.35;17.92;;;;;;;-2.17;48.91;101222.91;5035922;28;20104;-73
2022/03/13 05:10:35;;;;;;;39.95;15.85;;;;;;;-2.19;48.94;101225.28;5020071;28;20062;-73
2022/03/13 05:13:07;;;;;;;33.53;14.68;;;;;;;-2.16;49.11;101224.53;5053849;28;20029;-73
2022/03/13 05:15:33;;;;;;;35.83;16.42;;;;;;;-2.13;48.91;101229.41;5019139;28;20469;-72
2022/03/13 05:18:05;;;;;;;36.03;15.02;;;;;;;-2.10;49.18;101230.63;5035612;28;20045;-73
2022/03/13 05:20:33;;;;;;;39.30;16.77;;;;;;;-2.11;49.21;101232.59;5019283;28;20469;-72
2022/03/13 05:22:58;;;;;;;40.53;16.63;;;;;;;-2.13;48.64;101232.19;5019590;28;20055;-71
2022/03/13 05:25:25;;;;;;;41.95;17.10;;;;;;;-2.13;49.04;101226.59;5053704;28;20029;-73
2022/03/13 05:27:51;;;;;;;33.17;14.93;;;;;;;-2.01;48.67;101236.75;5019015;28;20468;-72
2022/03/13 05:30:19;;;;;;;35.03;16.42;;;;;;;-1.96;48.61;101251.22;5019122;28;20032;-72
2022/03/13 05:32:46;;;;;;;35.40;15.82;;;;;;;-1.93;48.64;101252.47;5019089;28;20025;-72
2022/03/13 05:35:12;;;;;;;31.88;15.35;;;;;;;-1.86;48.46;101245.03;5019268;28;20037;-71
2022/03/13 05:37:39;;;;;;;29.25;15.05;;;;;;;-1.88;48.21;101250.19;5002713;28;20037;-72
2022/03/13 05:40:06;;;;;;;34.75;15.38;;;;;;;-1.82;48.11;101247.88;5018836;28;20060;-71
2022/03/13 05:42:33;;;;;;;41.67;17.00;;;;;;;-1.82;47.52;101245.91;5053184;28;20054;-71
2022/03/13 05:45:02;;;;;;;35.40;16.00;;;;;;;-1.88;48.02;101225.06;5035511;28;20057;-72
2022/03/13 05:47:28;;;;;;;38.92;16.27;;;;;;;-1.70;48.02;101252.47;5035555;28;20365;-73
2022/03/13 05:49:55;;;;;;;31.38;15.23;;;;;;;-1.64;47.91;101257.38;5018801;28;20112;-72
2022/03/13 05:52:22;;;;;;;38.25;17.20;;;;;;;-1.62;47.55;101257.00;5018679;28;20060;-73
2022/03/13 05:54:49;;;;;;;34.08;16.92;;;;;;;-1.55;47.52;101254.34;5052885;28;20076;-72
2022/03/13 05:57:16;;;;;;;37.50;18.58;;;;;;;-1.47;47.43;101254.06;5035203;28;20036;-73
2022/03/13 05:59:42;;;;;;;37.50;16.38;;;;;;;-1.38;47.35;101257.41;5018450;28;20048;-71
2022/03/13 06:02:08;;;;;;;33.15;15.93;;;;;;;-1.29;47.21;101257.16;5035014;28;20108;-72
2022/03/13 06:04:39;;;;;;;34.97;16.58;;;;;;;-1.18;47.30;101260.09;5035408;28;20052;-73
2022/03/13 06:07:06;;;;;;;38.60;17.42;;;;;;;-1.07;47.01;101261.09;5003396;28;20033;-72
2022/03/13 06:09:32;;;;;;;32.75;14.02;;;;;;;-1.04;46.50;101238.78;5053004;28;20492;-72
2022/03/13 06:12:03;;;;;;;33.85;14.82;;;;;;;-0.18;45.74;101268.66;5052958;28;20427;-73
2022/03/13 06:14:30;;;;;;;34.17;15.13;;;;;;;0.85;43.72;101273.25;5053013;28;20056;-73
2022/03/13 06:16:56;;;;;;;38.20;13.93;;;;;;;1.68;42.50;101262.13;5052803;28;20108;-73
2022/03/13 06:19:22;;;;;;;29.80;14.52;;;;;;;3.27;39.59;101256.63;5035153;28;20053;-72
2022/03/13 06:21:49;;;;;;;29.80;15.30;;;;;;;3.08;38.77;101257.06;5002021;28;20059;-72
2022/03/13 06:24:18;;;;;;;32.50;14.27;;;;;;;2.60;39.57;101256.72;5052800;28;20113;-72
2022/03/13 06:26:44;;;;;;;37.70;15.38;;;;;;;2.12;40.28;101259.06;5002741;28;20029;-71
2022/03/13 06:29:13;;;;;;;32.97;15.70;;;;;;;1.89;41.21;101265.00;5034780;28;20378;-74
2022/03/13 06:32:01;;;;;;;35.55;15.45;;;;;;;2.20;42.07;101259.88;5031132;28;20068;-74
2022/03/13 06:34:29;;;;;;;26.92;13.70;;;;;;;5.90;36.99;101267.56;5041757;28;20031;-73
2022/03/13 06:36:57;;;;;;;29.27;14.25;;;;;;;8.56;32.46;101254.19;5028008;28;20402;-73
2022/03/13 06:39:22;;;;;;;35.83;15.55;;;;;;;9.86;30.28;101244.22;5012578;28;20029;-74
2022/03/13 06:41:49;;;;;;;29.33;14.82;;;;;;;12.61;26.00;101235.00;5025645;28;20055;-73
2022/03/13 06:44:15;;;;;;;29.30;14.70;;;;;;;15.47;22.56;101234.31;5028956;28;20034;-73
2022/03/13 06:46:42;;;;;;;29.67;15.27;;;;;;;17.67;19.47;101222.53;5029463;28;20078;-74
2022/03/13 06:49:12;;;;;;;27.77;14.52;;;;;;;17.35;18.81;101227.38;5040521;28;20531;-73
2022/03/13 06:51:40;;;;;;;32.00;15.38;;;;;;;15.17;19.80;101244.91;5017133;28;20106;-76
2022/03/13 06:54:12;;;;;;;30.85;15.32;;;;;;;14.12;20.47;101243.09;4995727;28;20050;-72
2022/03/13 06:56:40;;;;;;;26.45;14.23;;;;;;;15.22;19.59;101244.25;5014219;28;20038;-73
2022/03/13 06:59:06;;;;;;;27.23;15.07;;;;;;;17.73;17.97;101231.25;5002778;28;20038;-73
2022/03/13 07:01:33;;;;;;;29.77;15.30;;;;;;;20.20;15.92;101226.06;5023083;28;20025;-73
2022/03/13 07:04:00;;;;;;;23.75;14.30;;;;;;;21.63;14.03;101228.50;4994998;28;20045;-73
2022/03/13 07:06:27;;;;;;;26.83;14.30;;;;;;;22.55;13.78;101235.59;4997418;28;20032;-74
2022/03/13 07:08:55;;;;;;;25.35;13.88;;;;;;;23.38;12.44;101213.66;4998714;28;20034;-73
2022/03/13 07:11:22;;;;;;;26.10;14.73;;;;;;;24.35;11.44;101239.59;5016731;28;20034;-70
2022/03/13 07:13:48;;;;;;;30.10;15.75;;;;;;;24.48;11.35;101233.00;4998606;28;20477;-73
2022/03/13 07:16:15;;;;;;;26.38;15.50;;;;;;;24.58;10.53;101237.09;5015153;28;20022;-72
2022/03/13 07:18:42;;;;;;;27.95;15.38;;;;;;;24.92;10.82;101228.56;5014756;28;20100;-71
2022/03/13 07:21:09;;;;;;;29.05;16.15;;;;;;;25.92;10.18;101229.47;5014767;28;20078;-73
2022/03/13 07:23:36;;;;;;;24.77;15.00;;;;;;;25.72;9.92;101236.81;4998752;28;20030;-73
2022/03/13 07:26:01;;;;;;;26.75;15.75;;;;;;;26.55;10.00;101230.38;5015224;28;20034;-73
2022/03/13 07:28:29;;;;;;;23.15;14.40;;;;;;;26.21;9.49;101236.22;5016162;28;20124;-73
2022/03/13 07:30:57;;;;;;;26.45;15.38;;;;;;;26.51;9.39;101229.94;4998414;28;20032;-72
2022/03/13 07:33:22;;;;;;;27.33;16.25;;;;;;;26.63;8.73;101237.09;5005920;28;20044;-72
2022/03/13 07:35:48;;;;;;;27.00;15.82;;;;;;;26.37;8.92;101228.44;5031865;28;20104;-71
2022/03/13 07:38:16;;;;;;;25.73;15.45;;;;;;;26.19;9.33;101224.34;5021646;28;20139;-71
2022/03/13 07:40:43;;;;;;;26.02;14.77;;;;;;;26.85;9.10;101233.59;5026442;28;20077;-73
2022/03/13 07:43:10;;;;;;;26.73;14.88;;;;;;;27.63;8.74;101246.09;5010828;28;20532;-72
2022/03/13 07:45:35;;;;;;;27.73;15.40;;;;;;;28.08;8.70;101239.66;5027395;28;20052;-72
2022/03/13 07:48:00;;;;;;;23.40;14.95;;;;;;;28.36;8.13;101235.88;5009234;28;20406;-74
2022/03/13 07:50:28;;;;;;;27.33;16.33;;;;;;;27.32;8.80;101239.25;4998027;28;20037;-73
2022/03/13 07:52:55;;;;;;;31.00;16.63;;;;;;;27.28;8.78;101227.13;5000051;28;20045;-74
2022/03/13 07:55:22;;;;;;;26.45;15.05;;;;;;;26.87;9.51;101239.69;5017441;28;20014;-74
2022/03/13 07:57:48;;;;;;;29.02;15.75;;;;;;;24.08;10.07;101246.56;5035431;28;20132;-73
2022/03/13 08:00:17;;;;;;;24.92;16.30;;;;;;;20.42;12.54;101259.28;5000893;28;20033;-73
2022/03/13 08:02:46;;;;;;;25.23;15.32;;;;;;;17.18;14.44;101255.94;5036274;28;20032;-72
2022/03/13 08:05:13;;;;;;;28.05;15.32;;;;;;;15.22;16.50;101261.47;5027664;28;20029;-74
2022/03/13 08:07:39;;;;;;;24.40;15.52;;;;;;;15.33;16.53;101266.66;5017038;28;20120;-74
2022/03/13 08:10:06;;;;;;;31.20;16.70;;;;;;;16.14;16.39;101253.69;5000761;28;20442;-72
2022/03/13 08:12:31;;;;;;;31.38;16.63;;;;;;;16.71;15.98;101251.31;5031982;28;20029;-73
2022/03/13 08:14:56;;;;;;;36.58;16.83;;;;;;;17.35;15.84;101238.91;5035084;28;20079;-74
2022/03/13 08:17:24;;;;;;;32.05;16.58;;;;;;;17.92;15.62;101244.03;5035547;28;20031;-74
2022/03/13 08:20:04;;;;;;;28.98;16.10;;;;;;;18.37;14.22;101240.31;5054678;28;20025;-72
2022/03/13 08:22:30;;;;;;;31.70;16.88;;;;;;;18.10;15.12;101244.53;5003883;28;20113;-73
2022/03/13 08:24:57;;;;;;;29.05;16.80;;;;;;;18.16;15.03;101240.88;5040289;28;20025;-74
2022/03/13 08:27:24;;;;;;;25.10;15.77;;;;;;;17.98;15.27;101236.25;5053939;28;20041;-74
2022/03/13 08:29:49;;;;;;;27.65;16.75;;;;;;;17.91;16.53;101225.19;5019970;28;20414;-73
2022/03/13 08:32:18;;;;;;;28.20;17.10;;;;;;;18.20;16.26;101229.94;5036543;28;20128;-74
2022/03/13 08:34:53;;;;;;;27.17;15.98;;;;;;;18.20;15.92;101218.41;5048068;28;20431;-75
2022/03/13 08:37:38;;;;;;;24.80;14.20;;;;;;;18.41;15.65;101205.44;5054028;28;20477;-74
2022/03/13 08:40:05;;;;;;;23.58;14.77;;;;;;;18.46;15.34;101213.38;5054283;28;20031;-75
2022/03/13 08:42:45;;;;;;;24.17;14.00;;;;;;;18.33;15.62;101215.88;5054293;28;20032;-73
2022/03/13 08:45:12;;;;;;;22.90;13.52;;;;;;;18.16;14.44;101223.56;5049620;28;20029;-74
2022/03/13 08:47:42;;;;;;;24.33;14.75;;;;;;;17.54;15.96;101208.50;5016455;28;20218;-79
2022/03/13 08:50:29;;;;;;;30.50;14.73;;;;;;;17.02;16.33;101221.94;5030730;28;20021;-77
2022/03/13 08:53:14;;;;;;;27.63;14.15;;;;;;;16.68;16.85;101216.97;5053179;28;20134;-75
2022/03/13 08:55:47;;;;;;;25.58;14.10;;;;;;;16.75;17.13;101219.44;5053857;28;20033;-74
2022/03/13 08:58:13;;;;;;;23.50;14.48;;;;;;;16.48;17.27;101219.78;5053315;28;20431;-77
2022/03/13 09:00:39;;;;;;;27.10;14.38;;;;;;;16.14;16.60;101210.56;5036525;28;20060;-76
2022/03/13 09:03:05;;;;;;;21.60;13.45;;;;;;;15.86;17.04;101209.28;5036185;28;20059;-76
2022/03/13 09:05:31;;;;;;;22.95;12.63;;;;;;;15.53;16.80;101213.09;5042444;28;20049;-75
2022/03/13 09:07:58;;;;;;;20.77;13.23;;;;;;;15.13;17.18;101218.47;5033939;28;20180;-76
2022/03/13 09:10:25;;;;;;;23.35;11.98;;;;;;;14.68;17.04;101206.00;5016028;28;20025;-77
2022/03/13 09:12:53;;;;;;;27.23;12.73;;;;;;;14.32;18.22;101211.84;5032160;28;20037;-77
2022/03/13 09:15:20;;;;;;;20.05;10.15;;;;;;;14.15;17.21;101225.75;5034471;28;20443;-76
2022/03/13 09:17:53;;;;;;;18.02;10.65;;;;;;;14.05;17.21;101215.59;5036629;28;20040;-75
2022/03/13 09:20:19;;;;;;;19.42;10.82;;;;;;;13.87;17.94;101209.09;5051464;28;20048;-80
2022/03/13 09:22:46;;;;;;;26.42;9.93;;;;;;;13.77;17.75;101211.16;5001954;28;20437;-78
2022/03/13 09:25:14;;;;;;;19.05;9.68;;;;;;;13.69;17.82;101207.84;5040422;28;20069;-78
2022/03/13 09:27:41;;;;;;;23.80;9.40;;;;;;;13.48;17.03;101203.09;5015850;28;20025;-75
2022/03/13 09:30:09;;;;;;;27.98;10.18;;;;;;;13.33;16.65;101210.72;5033455;28;20140;-75
2022/03/13 09:32:49;;;;;;;16.42;8.80;;;;;;;13.31;16.52;101202.63;4999442;28;20113;-75
2022/03/13 09:35:14;;;;;;;20.17;8.77;;;;;;;13.18;16.50;101218.31;5033306;28;20514;-72
2022/03/13 09:37:41;;;;;;;17.58;8.55;;;;;;;13.05;16.98;101209.06;5032385;28;20048;-73
2022/03/13 09:40:09;;;;;;;22.77;9.23;;;;;;;13.16;16.87;101212.31;5033236;28;20041;-75
2022/03/13 09:42:36;;;;;;;21.10;8.75;;;;;;;13.34;16.58;101206.59;5033043;28;20044;-74
2022/03/13 09:45:11;;;;;;;18.17;9.25;;;;;;;13.41;16.26;101206.28;5015843;28;20389;-73
2022/03/13 09:47:37;;;;;;;26.27;8.82;;;;;;;13.26;15.70;101211.03;5033452;28;20507;-73
2022/03/13 09:50:07;;;;;;;16.00;8.70;;;;;;;12.96;16.26;101229.88;5033496;28;20033;-75
2022/03/13 09:52:36;;;;;;;17.90;9.38;;;;;;;12.77;16.47;101216.81;4998695;28;20054;-78
2022/03/13 09:55:01;;;;;;;20.10;8.63;;;;;;;12.76;17.68;101204.56;5033027;28;20045;-77
2022/03/13 09:57:27;;;;;;;18.25;9.38;;;;;;;12.84;17.90;101214.44;5032623;28;20148;-76
2022/03/13 09:59:56;;;;;;;17.95;8.57;;;;;;;13.06;17.59;101205.75;5031489;28;20034;-76
2022/03/13 10:02:32;;;;;;;14.57;8.15;;;;;;;13.17;17.43;101205.31;5031448;28;20104;-76
2022/03/13 10:04:57;;;;;;;16.13;8.57;;;;;;;13.21;16.83;101205.94;5031781;28;20033;-76
2022/03/13 10:07:22;;;;;;;16.95;8.10;;;;;;;13.19;16.42;101202.75;5013748;28;20026;-75
2022/03/13 10:09:48;;;;;;;14.10;8.07;;;;;;;13.23;17.28;101203.38;5013752;28;20033;-76
2022/03/13 10:12:22;;;;;;;17.55;8.00;;;;;;;13.37;17.39;101197.84;5031903;28;20040;-76
2022/03/13 10:15:06;;;;;;;15.25;8.52;;;;;;;13.42;16.06;101204.22;4998020;28;20042;-75
2022/03/13 10:17:34;;;;;;;16.05;8.25;;;;;;;13.18;16.65;101210.53;5014059;28;20056;-75
2022/03/13 10:20:19;;;;;;;19.55;9.45;;;;;;;13.03;16.36;101195.22;5031509;28;20108;-74
2022/03/13 10:22:47;;;;;;;14.82;7.90;;;;;;;12.89;16.80;101216.66;5031486;28;20026;-76
2022/03/13 10:25:14;;;;;;;19.02;8.63;;;;;;;12.68;17.08;101193.91;5013732;28;20045;-75
2022/03/13 10:27:41;;;;;;;14.65;7.90;;;;;;;12.76;17.22;101193.13;5014358;28;20038;-75
2022/03/13 10:30:08;;;;;;;14.65;8.25;;;;;;;12.99;17.41;101203.97;4998945;28;20045;-75
2022/03/13 10:32:42;;;;;;;15.55;8.30;;;;;;;13.06;16.75;101197.16;4999190;28;20032;-75
2022/03/13 10:35:08;;;;;;;15.65;9.27;;;;;;;12.98;16.94;101205.25;5015541;28;20037;-75
2022/03/13 10:37:46;;;;;;;12.73;7.40;;;;;;;13.19;18.02;101197.03;5032819;28;20032;-75
2022/03/13 10:40:24;;;;;;;13.07;8.60;;;;;;;13.16;17.09;101198.78;5029173;28;20028;-76
2022/03/13 10:42:50;;;;;;;16.83;9.45;;;;;;;12.96;17.43;101184.91;5022180;28;20063;-76
2022/03/13 10:45:54;;;;;;;14.90;7.78;;;;;;;12.95;17.63;101196.81;5038677;28;20375;-75
2022/03/13 10:48:21;;;;;;;16.15;9.05;;;;;;;13.02;17.30;101192.88;4943238;28;20085;-76
2022/03/13 10:50:51;;;;;;;15.40;8.55;;;;;;;12.94;17.41;101196.03;4975459;28;20046;-76
2022/03/13 10:53:18;;;;;;;15.15;8.90;;;;;;;12.96;17.23;101179.19;4959215;28;20058;-75
2022/03/13 10:55:43;;;;;;;20.65;10.15;;;;;;;12.93;17.18;101188.72;4986608;28;20040;-75
2022/03/13 10:58:09;;;;;;;15.85;9.73;;;;;;;12.88;17.37;101183.63;5035344;28;20033;-75
2022/03/13 11:00:35;;;;;;;16.45;9.38;;;;;;;12.85;17.46;101181.72;5036348;28;20056;-75
2022/03/13 11:03:27;;;;;;;15.23;9.55;;;;;;;12.61;17.60;101183.56;5034935;28;20035;-75
2022/03/13 11:05:55;;;;;;;22.55;10.13;;;;;;;12.50;17.36;101180.34;5018481;28;20128;-75
2022/03/13 11:08:22;;;;;;;15.55;9.38;;;;;;;12.29;18.08;101184.06;5035252;28;20029;-75
2022/03/13 11:10:48;;;;;;;14.65;9.00;;;;;;;12.30;18.56;101179.94;5034011;28;20037;-74
2022/03/13 11:13:14;;;;;;;18.10;9.73;;;;;;;12.29;17.61;101170.56;5002333;28;20093;-75
2022/03/13 11:15:50;;;;;;;14.55;9.23;;;;;;;12.14;17.76;101180.97;5034827;28;20022;-75
2022/03/13 11:18:18;;;;;;;14.30;8.73;;;;;;;12.00;17.42;101176.63;5035686;28;20057;-74
2022/03/13 11:20:47;;;;;;;16.02;8.52;;;;;;;11.96;17.57;101184.53;5018017;28;20038;-75